Time;durP1;ratioP1;P1;durP2;ratioP2;P2;SDS_P1;SDS_P2;PMS_P1;PMS_P2;Temp;Humidity;BMP_temperature;BMP_pressure;BME280_temperature;BME280_humidity;BME280_pressure;Samples;Min_cycle;Max_cycle;Signal;HPM_P1;HPM_P2
2022/06/17 00:01:40;;;;;;;7.15;2.40;;;;;;;20.15;42.29;100654.34;4974775;28;20058;-61
2022/06/17 00:04:08;;;;;;;9.70;2.65;;;;;;;20.11;42.54;100655.56;4991751;28;20054;-62
2022/06/17 00:06:48;;;;;;;5.65;2.10;;;;;;;20.07;42.77;100646.94;4974408;28;20050;-62
2022/06/17 00:09:18;;;;;;;3.63;2.22;;;;;;;20.04;42.28;100647.22;4991389;28;20154;-63
2022/06/17 00:11:45;;;;;;;4.43;2.35;;;;;;;20.04;42.68;100658.72;4991880;28;20058;-63
2022/06/17 00:14:22;;;;;;;6.00;2.20;;;;;;;20.00;43.11;100656.47;4991686;28;20057;-62
2022/06/17 00:16:49;;;;;;;3.53;2.17;;;;;;;20.00;42.77;100648.44;4974032;28;20054;-62
2022/06/17 00:19:18;;;;;;;4.38;2.22;;;;;;;19.97;43.19;100654.88;4973705;28;20117;-62
2022/06/17 00:21:51;;;;;;;5.18;2.30;;;;;;;19.93;43.29;100651.56;4991966;28;20112;-60
2022/06/17 00:24:25;;;;;;;;;;;;;;;19.92;42.02;100641.00;4992338;28;20104;-61
2022/06/17 00:26:56;;;;;;;4.38;1.70;;;;;;;19.97;42.16;100643.31;4991724;28;19922;-60
2022/06/17 00:29:26;;;;;;;8.60;2.33;;;;;;;19.91;43.16;100653.53;4973944;28;20046;-60
2022/06/17 00:31:53;;;;;;;6.00;2.47;;;;;;;19.89;42.93;100650.13;4991343;28;20042;-60
2022/06/17 00:34:20;;;;;;;5.93;2.78;;;;;;;19.86;43.05;100652.22;4991240;28;20549;-61
2022/06/17 00:36:46;;;;;;;9.18;2.60;;;;;;;19.84;43.43;100647.00;4991483;28;20069;-61
2022/06/17 00:39:23;;;;;;;7.20;2.38;;;;;;;19.81;43.91;100649.09;4991165;28;20054;-60
2022/06/17 00:41:56;;;;;;;3.42;1.95;;;;;;;19.79;43.83;100641.19;4991141;28;20057;-61
2022/06/17 00:44:52;;;;;;;10.05;2.53;;;;;;;19.77;44.30;100646.66;4991235;28;20065;-61
2022/06/17 00:47:44;;;;;;;5.70;2.40;;;;;;;19.73;43.50;100647.03;4991438;28;20057;-60
2022/06/17 00:50:24;;;;;;;5.07;2.13;;;;;;;19.72;43.84;100650.66;4991024;28;20051;-61
2022/06/17 00:53:09;;;;;;;4.65;2.47;;;;;;;19.69;44.01;100657.13;4991388;28;20109;-61
2022/06/17 00:55:42;;;;;;;7.35;2.92;;;;;;;19.66;43.86;100655.53;4991154;28;20078;-61
2022/06/17 00:58:19;;;;;;;7.10;2.47;;;;;;;19.62;44.09;100646.09;4991032;28;20494;-61
2022/06/17 01:00:48;;;;;;;4.93;2.42;;;;;;;19.63;43.76;100637.09;4990854;28;20137;-60
2022/06/17 01:03:22;;;;;;;5.55;2.60;;;;;;;19.61;44.16;100638.19;4991606;28;20124;-60
2022/06/17 01:05:52;;;;;;;6.55;2.80;;;;;;;19.58;43.67;100644.63;4992890;28;20050;-62
2022/06/17 01:11:17;;;;;;;7.97;2.67;;;;;;;19.54;43.73;100648.53;4995443;28;20053;-61
2022/06/17 01:13:48;;;;;;;8.25;2.70;;;;;;;19.51;44.41;100662.16;4995077;28;20058;-60
2022/06/17 01:16:18;;;;;;;5.82;3.05;;;;;;;19.50;44.01;100663.09;4977642;28;20076;-61
2022/06/17 01:18:46;;;;;;;5.07;2.60;;;;;;;19.47;44.09;100668.69;4977689;28;20050;-61
2022/06/17 01:21:40;;;;;;;7.47;2.58;;;;;;;19.43;44.48;100656.56;4994703;28;20407;-62
2022/06/17 01:24:08;;;;;;;4.70;2.05;;;;;;;19.45;43.97;100667.97;4984502;28;20058;-63
2022/06/17 01:26:35;;;;;;;7.13;3.05;;;;;;;19.42;44.35;100669.06;4994846;28;20267;-61
2022/06/17 01:29:06;;;;;;;5.57;3.45;;;;;;;19.41;44.17;100672.72;4994607;28;20065;-61
2022/06/17 01:31:33;;;;;;;5.95;3.05;;;;;;;19.38;44.57;100660.47;4994597;28;20054;-64
2022/06/17 01:34:00;;;;;;;7.07;3.05;;;;;;;19.37;44.30;100665.91;4977224;28;20054;-60
2022/06/17 01:36:28;;;;;;;6.60;2.75;;;;;;;19.34;44.44;100669.69;4994653;28;20097;-60
2022/06/17 01:38:59;;;;;;;8.73;3.10;;;;;;;19.34;44.88;100668.81;4977305;28;20310;-61
2022/06/17 01:41:28;;;;;;;5.95;2.53;;;;;;;19.33;44.57;100670.63;4994737;28;20062;-61
2022/06/17 01:44:08;;;;;;;6.55;2.90;;;;;;;19.29;44.85;100665.69;4994793;28;20068;-62
2022/06/17 01:46:41;;;;;;;5.28;2.80;;;;;;;19.28;44.97;100664.81;4994439;28;20090;-61
2022/06/17 01:49:22;;;;;;;5.00;2.13;;;;;;;19.23;44.62;100659.84;4994413;28;20466;-61
2022/06/17 01:52:08;;;;;;;4.30;2.30;;;;;;;19.22;44.70;100668.81;4994491;28;20422;-62
2022/06/17 01:54:42;;;;;;;11.60;2.25;;;;;;;19.24;45.01;100658.03;4977016;28;20058;-61
2022/06/17 01:57:14;;;;;;;6.45;2.30;;;;;;;19.23;44.50;100659.84;4976984;28;20277;-62
2022/06/17 01:59:45;;;;;;;4.85;2.17;;;;;;;19.21;45.09;100667.13;4994263;28;20050;-61
2022/06/17 02:02:13;;;;;;;5.63;1.98;;;;;;;19.21;44.97;100669.78;4994282;28;20058;-61
2022/06/17 02:04:48;;;;;;;4.90;2.20;;;;;;;19.18;45.25;100671.88;4977058;28;20061;-61
2022/06/17 02:07:33;;;;;;;7.55;2.45;;;;;;;19.18;45.72;100677.19;4976998;28;20054;-61
2022/06/17 02:10:01;;;;;;;4.53;2.25;;;;;;;19.19;45.17;100670.88;4994029;28;20054;-61
2022/06/17 02:12:30;;;;;;;5.97;2.33;;;;;;;19.17;45.53;100668.34;4976525;28;20057;-61
2022/06/17 02:14:57;;;;;;;4.13;2.60;;;;;;;19.18;45.21;100667.38;4994053;28;20054;-61
2022/06/17 02:17:30;;;;;;;3.20;2.15;;;;;;;19.15;45.41;100662.28;4992527;28;20046;-60
2022/06/17 02:19:57;;;;;;;7.63;2.30;;;;;;;19.18;45.04;100661.19;4993539;28;20058;-62
2022/06/17 02:22:29;;;;;;;3.42;2.10;;;;;;;19.16;45.20;100663.97;4994169;28;20058;-61
2022/06/17 02:25:00;;;;;;;5.45;2.10;;;;;;;19.15;45.54;100664.94;4993994;28;20050;-61
2022/06/17 02:27:29;;;;;;;6.38;2.03;;;;;;;19.15;45.25;100656.94;4976467;28;20594;-61
2022/06/17 02:29:57;;;;;;;5.10;2.20;;;;;;;19.13;45.33;100665.06;4975990;28;20062;-61
2022/06/17 02:32:24;;;;;;;4.97;2.22;;;;;;;19.11;45.19;100655.50;4993310;28;20054;-60
2022/06/17 02:34:58;;;;;;;4.40;2.08;;;;;;;19.06;45.31;100658.50;4993493;28;20403;-61
2022/06/17 02:37:26;;;;;;;10.35;2.38;;;;;;;19.07;45.64;100657.56;4993543;28;20049;-61
2022/06/17 02:39:56;;;;;;;6.45;2.65;;;;;;;19.02;45.28;100647.19;4993164;28;20046;-61
2022/06/17 02:42:30;;;;;;;3.70;1.90;;;;;;;18.98;45.82;100652.88;4976251;28;20050;-62
2022/06/17 02:45:17;;;;;;;12.32;2.65;;;;;;;18.94;45.56;100656.75;4976072;28;20046;-62
2022/06/17 02:47:44;;;;;;;5.57;2.13;;;;;;;18.93;45.57;100655.94;4993622;28;20323;-62
2022/06/17 02:50:17;;;;;;;5.13;1.90;;;;;;;18.89;45.64;100660.63;4993279;28;20059;-61
2022/06/17 02:52:46;;;;;;;2.13;1.77;;;;;;;18.88;45.23;100656.28;4976333;28;20347;-62
2022/06/17 02:55:48;;;;;;;5.35;2.17;;;;;;;18.82;45.93;100655.91;4993046;28;20061;-61
2022/06/17 02:58:41;;;;;;;3.10;1.90;;;;;;;18.79;45.94;100650.81;4980378;28;20069;-61
2022/06/17 03:01:16;;;;;;;6.20;1.80;;;;;;;18.75;45.87;100647.53;4962969;28;20062;-61
2022/06/17 03:03:45;;;;;;;3.53;2.03;;;;;;;18.72;45.66;100651.28;4975846;28;20046;-62
2022/06/17 03:06:19;;;;;;;4.88;1.98;;;;;;;18.68;45.94;100654.31;4975867;28;20051;-61
2022/06/17 03:08:50;;;;;;;4.65;2.20;;;;;;;18.66;46.00;100661.59;4975683;28;20050;-60
2022/06/17 03:11:19;;;;;;;3.00;1.95;;;;;;;18.64;45.70;100655.53;4975550;28;20054;-61
2022/06/17 03:13:53;;;;;;;2.67;2.17;;;;;;;18.60;46.26;100641.56;4992959;28;20054;-61
2022/06/17 03:16:21;;;;;;;2.63;1.77;;;;;;;18.59;45.87;100643.41;4975261;28;20058;-61
2022/06/17 03:18:51;;;;;;;4.35;2.22;;;;;;;18.59;46.12;100639.88;4975541;28;20065;-62
2022/06/17 03:21:23;;;;;;;7.85;2.50;;;;;;;18.57;46.66;100634.66;4992596;28;20051;-61
2022/06/17 03:23:59;;;;;;;9.88;2.15;;;;;;;18.55;46.80;100636.63;4975337;28;20050;-62
2022/06/17 03:26:31;;;;;;;3.65;1.80;;;;;;;18.55;46.68;100636.63;4975212;28;20082;-61
2022/06/17 03:29:01;;;;;;;5.20;1.98;;;;;;;18.55;46.05;100636.63;4991977;28;20054;-63
2022/06/17 03:31:34;;;;;;;3.05;1.73;;;;;;;18.53;46.42;100633.19;4992671;28;20140;-61
2022/06/17 03:34:25;;;;;;;9.13;2.10;;;;;;;18.53;46.19;100640.34;4992559;28;20047;-64
2022/06/17 03:37:17;;;;;;;9.75;2.13;;;;;;;18.53;46.76;100643.84;4992246;28;20054;-62
2022/06/17 03:40:18;;;;;;;4.82;1.83;;;;;;;18.55;45.83;100644.59;4992150;28;20553;-62
2022/06/17 03:42:56;;;;;;;3.95;2.03;;;;;;;18.57;46.21;100645.31;4978295;28;20113;-60
2022/06/17 03:45:28;;;;;;;2.55;1.52;;;;;;;18.60;46.13;100649.56;4992382;28;20051;-61
2022/06/17 03:47:59;;;;;;;2.10;1.55;;;;;;;18.62;45.37;100647.66;4992241;28;20499;-61
2022/06/17 03:50:32;;;;;;;2.90;1.67;;;;;;;18.63;45.90;100644.00;4992238;28;20209;-60
2022/06/17 03:53:03;;;;;;;3.63;2.00;;;;;;;18.65;45.86;100646.56;4992387;28;20121;-60
2022/06/17 03:55:30;;;;;;;6.80;1.80;;;;;;;18.68;45.83;100651.63;4992740;28;20050;-63
2022/06/17 03:58:00;;;;;;;3.65;1.60;;;;;;;18.69;45.85;100645.34;4992040;28;20050;-61
2022/06/17 04:00:56;;;;;;;4.18;1.88;;;;;;;18.70;45.67;100644.38;4974679;28;20056;-60
2022/06/17 04:03:25;;;;;;;3.35;1.85;;;;;;;18.72;45.65;100642.44;4976232;28;20050;-61
2022/06/17 04:05:59;;;;;;;2.28;1.75;;;;;;;18.73;45.84;100641.50;4991972;28;20046;-60
2022/06/17 04:08:25;;;;;;;2.90;1.48;;;;;;;18.78;45.37;100649.97;4991597;28;20054;-60
2022/06/17 04:10:52;;;;;;;5.60;1.83;;;;;;;18.80;45.33;100647.19;4992070;28;20050;-60
2022/06/17 04:13:24;;;;;;;5.18;2.00;;;;;;;18.81;45.67;100647.06;4991846;28;20050;-61
2022/06/17 04:16:18;;;;;;;2.92;1.75;;;;;;;18.84;45.18;100657.50;4991816;28;20104;-62
2022/06/17 04:18:44;;;;;;;3.72;1.67;;;;;;;18.90;45.13;100656.16;4991380;28;20410;-63
2022/06/17 04:21:13;;;;;;;2.53;1.52;;;;;;;18.93;45.18;100657.75;4991504;28;20105;-60
2022/06/17 04:23:41;;;;;;;5.80;1.85;;;;;;;18.95;45.38;100653.97;4991455;28;20113;-61
2022/06/17 04:26:32;;;;;;;4.40;2.00;;;;;;;18.94;45.33;100662.09;4974252;28;20047;-61
2022/06/17 04:29:09;;;;;;;3.88;1.90;;;;;;;18.98;45.04;100661.75;4991292;28;20058;-62
2022/06/17 04:31:36;;;;;;;4.45;1.90;;;;;;;19.06;45.28;100671.84;4991589;28;20076;-60
2022/06/17 04:34:07;;;;;;;2.45;1.83;;;;;;;19.10;44.92;100675.97;4991425;28;20053;-65
2022/06/17 04:36:51;;;;;;;2.63;1.67;;;;;;;19.13;45.50;100667.72;4974259;28;20058;-61
2022/06/17 04:39:36;;;;;;;4.00;1.58;;;;;;;19.18;45.02;100667.38;4990802;28;20514;-60
2022/06/17 04:42:07;;;;;;;2.78;1.30;;;;;;;19.28;45.80;100667.47;4974299;28;20050;-60
2022/06/17 04:44:33;;;;;;;4.93;1.65;;;;;;;19.37;45.48;100677.41;4991490;28;20108;-61
2022/06/17 04:47:12;;;;;;;5.28;1.58;;;;;;;19.43;45.39;100684.09;4991576;28;20120;-60
2022/06/17 04:49:49;;;;;;;5.10;1.50;;;;;;;19.53;44.96;100686.88;4974009;28;20050;-64
2022/06/17 04:52:41;;;;;;;2.08;1.58;;;;;;;19.61;44.66;100676.44;4973881;28;20454;-59
2022/06/17 04:55:21;;;;;;;2.63;1.52;;;;;;;19.71;44.36;100681.03;4991462;28;20057;-60
2022/06/17 04:57:48;;;;;;;3.80;1.58;;;;;;;19.81;44.85;100681.97;4991393;28;20050;-60
2022/06/17 05:00:18;;;;;;;2.83;1.30;;;;;;;19.84;44.71;100678.22;4990887;28;20499;-63
2022/06/17 05:02:45;;;;;;;3.60;1.42;;;;;;;19.88;44.29;100677.84;4991069;28;20274;-60
2022/06/17 05:05:16;;;;;;;3.30;1.65;;;;;;;19.89;44.66;100671.50;4991166;28;20065;-63
2022/06/17 05:07:48;;;;;;;2.95;1.65;;;;;;;19.91;44.17;100664.22;4973914;28;20193;-60
2022/06/17 05:10:37;;;;;;;4.93;1.88;;;;;;;19.91;44.07;100671.38;4975485;28;20072;-60
2022/06/17 05:13:12;;;;;;;2.55;1.58;;;;;;;19.93;44.31;100672.94;4991041;28;20050;-61
2022/06/17 05:15:39;;;;;;;2.40;1.77;;;;;;;19.97;44.20;100678.06;4990968;28;20093;-60
2022/06/17 05:18:07;;;;;;;3.13;1.75;;;;;;;19.96;43.97;100677.19;4990838;28;20054;-60
2022/06/17 05:20:34;;;;;;;4.05;1.77;;;;;;;19.96;44.15;100685.22;4973560;28;20505;-61
2022/06/17 05:23:04;;;;;;;3.38;1.92;;;;;;;19.97;43.73;100683.41;4990936;28;20105;-62
2022/06/17 05:25:39;;;;;;;3.40;1.70;;;;;;;19.96;43.83;100671.84;4990686;28;20054;-61
2022/06/17 05:28:07;;;;;;;3.47;1.80;;;;;;;19.97;43.85;100675.38;4973652;28;20246;-62
2022/06/17 05:30:38;;;;;;;4.35;1.85;;;;;;;19.98;44.23;100669.06;4990744;28;20050;-63
2022/06/17 05:33:05;;;;;;;3.03;1.77;;;;;;;20.00;43.79;100678.66;4973489;28;20406;-61
2022/06/17 05:35:31;;;;;;;3.63;1.60;;;;;;;20.02;44.01;100676.72;4990232;28;20108;-60
2022/06/17 05:37:58;;;;;;;3.00;1.63;;;;;;;20.05;43.65;100679.16;4990401;28;20463;-64
2022/06/17 05:40:26;;;;;;;7.68;2.17;;;;;;;20.10;43.23;100685.91;4989930;28;20108;-61
2022/06/17 05:42:53;;;;;;;7.15;2.38;;;;;;;20.14;43.77;100687.38;4972952;28;20042;-60
2022/06/17 05:45:23;;;;;;;2.53;1.80;;;;;;;20.16;43.51;100683.63;4990504;28;20503;-60
2022/06/17 05:47:50;;;;;;;3.35;1.60;;;;;;;20.24;43.83;100685.66;4990942;28;20087;-60
2022/06/17 05:50:17;;;;;;;4.00;2.00;;;;;;;20.30;44.05;100686.97;4990448;28;20112;-62
2022/06/17 05:52:59;;;;;;;3.30;1.95;;;;;;;20.34;43.89;100682.19;4993951;28;20138;-61
2022/06/17 05:55:29;;;;;;;3.10;1.90;;;;;;;20.44;44.03;100680.44;4977032;28;20046;-61
2022/06/17 05:57:57;;;;;;;2.40;1.85;;;;;;;20.51;43.71;100683.44;4994919;28;20450;-60
2022/06/17 06:00:25;;;;;;;3.58;2.15;;;;;;;20.57;43.78;100677.59;4994028;28;20109;-62
2022/06/17 06:02:56;;;;;;;3.22;1.77;;;;;;;20.60;43.73;100679.16;4994351;28;20053;-60
2022/06/17 06:05:25;;;;;;;3.75;1.63;;;;;;;20.65;43.67;100679.59;4976855;28;20491;-61
2022/06/17 06:07:52;;;;;;;7.93;1.90;;;;;;;20.69;43.54;100681.03;4976985;28;20062;-62
2022/06/17 06:10:19;;;;;;;4.05;1.67;;;;;;;20.70;43.89;100683.59;4993967;28;20054;-62
2022/06/17 06:13:03;;;;;;;2.42;1.80;;;;;;;20.75;43.47;100687.69;4994122;28;20116;-60
2022/06/17 06:15:35;;;;;;;3.55;1.98;;;;;;;20.77;43.52;100693.75;4994291;28;20057;-60
2022/06/17 06:18:02;;;;;;;4.32;2.08;;;;;;;20.79;43.47;100700.66;4976759;28;20061;-61
2022/06/17 06:20:29;;;;;;;2.60;1.83;;;;;;;20.82;43.16;100702.25;4993814;28;20090;-63
2022/06/17 06:22:56;;;;;;;3.90;1.70;;;;;;;20.86;43.22;100700.16;4993966;28;20066;-61
2022/06/17 06:25:23;;;;;;;2.92;1.67;;;;;;;20.87;43.57;100694.69;4976580;28;20093;-60
2022/06/17 06:27:50;;;;;;;3.28;2.00;;;;;;;20.92;43.62;100708.53;4976565;28;20082;-60
2022/06/17 06:30:27;;;;;;;4.05;2.35;;;;;;;20.96;43.29;100709.09;4993557;28;20050;-63
2022/06/17 06:32:58;;;;;;;3.53;2.10;;;;;;;20.99;43.34;100698.13;4993449;28;20049;-62
2022/06/17 06:35:28;;;;;;;4.25;2.05;;;;;;;21.04;43.38;100697.75;4993511;28;20058;-64
2022/06/17 06:37:55;;;;;;;2.83;1.90;;;;;;;21.11;43.44;100703.44;4976247;28;20054;-61
2022/06/17 06:40:21;;;;;;;3.58;1.88;;;;;;;21.18;43.80;100701.88;4993173;28;20553;-63
2022/06/17 06:42:50;;;;;;;5.13;1.98;;;;;;;21.26;43.59;100693.22;4975968;28;20042;-61
2022/06/17 06:45:27;;;;;;;4.53;1.90;;;;;;;21.35;43.36;100703.09;4976096;28;20494;-60
2022/06/17 06:47:56;;;;;;;3.35;1.85;;;;;;;21.45;43.61;100705.78;4993515;28;20132;-63
2022/06/17 06:50:26;;;;;;;4.57;2.30;;;;;;;21.53;43.50;100694.44;4993148;28;20058;-61
2022/06/17 06:52:52;;;;;;;8.57;2.17;;;;;;;21.61;43.49;100697.28;4993385;28;20473;-61
2022/06/17 06:55:19;;;;;;;4.45;2.30;;;;;;;21.68;43.21;100687.69;4993238;28;20083;-60
2022/06/17 06:57:55;;;;;;;5.22;2.00;;;;;;;21.73;42.97;100679.28;4993338;28;20062;-62
2022/06/17 07:00:24;;;;;;;3.50;2.22;;;;;;;21.82;43.23;100677.59;4975705;28;20182;-61
2022/06/17 07:02:51;;;;;;;1.90;1.77;;;;;;;21.87;42.97;100678.88;4975235;28;20442;-61
2022/06/17 07:05:18;;;;;;;2.67;2.25;;;;;;;21.92;42.93;100682.97;4993242;28;20093;-62
2022/06/17 07:07:45;;;;;;;4.57;2.60;;;;;;;21.96;42.83;100679.00;4993032;28;20046;-60
2022/06/17 07:10:16;;;;;;;3.38;2.08;;;;;;;21.99;43.21;100690.28;4992737;28;20065;-63
2022/06/17 07:12:43;;;;;;;6.15;2.28;;;;;;;22.06;43.08;100690.63;4993131;28;20042;-60
2022/06/17 07:15:10;;;;;;;3.45;2.22;;;;;;;22.12;42.95;100683.81;4959605;28;20495;-60
2022/06/17 07:17:37;;;;;;;2.58;1.88;;;;;;;22.19;43.14;100686.78;4975508;28;20050;-61
2022/06/17 07:20:04;;;;;;;3.45;2.17;;;;;;;22.24;42.92;100684.56;4992648;28;20541;-60
2022/06/17 07:22:31;;;;;;;3.33;1.92;;;;;;;22.29;42.81;100682.28;4975639;28;20096;-64
2022/06/17 07:24:57;;;;;;;8.40;2.10;;;;;;;22.35;42.73;100678.19;4992713;28;20062;-62
2022/06/17 07:27:24;;;;;;;3.78;2.28;;;;;;;22.41;42.51;100679.44;4992724;28;20060;-60
2022/06/17 07:29:51;;;;;;;3.30;2.15;;;;;;;22.47;42.76;100671.66;4992423;28;20054;-63
2022/06/17 07:32:17;;;;;;;3.47;2.28;;;;;;;22.52;42.49;100668.56;4992261;28;20120;-60
2022/06/17 07:34:45;;;;;;;3.33;2.00;;;;;;;22.57;42.05;100671.69;4992201;28;20051;-61
2022/06/17 07:40:00;;;;;;;3.63;1.95;;;;;;;22.69;42.35;100671.53;4992028;28;20083;-61
2022/06/17 07:42:37;;;;;;;4.75;2.40;;;;;;;22.72;42.21;100664.03;4992235;28;20042;-61
2022/06/17 07:45:10;;;;;;;3.40;2.17;;;;;;;22.80;42.39;100670.53;4991960;28;20097;-61
2022/06/17 07:47:39;;;;;;;3.83;2.00;;;;;;;22.87;42.59;100667.09;4992336;28;20050;-62
2022/06/17 07:50:13;;;;;;;4.63;1.92;;;;;;;22.94;42.85;100672.72;4992062;28;20054;-61
2022/06/17 07:52:40;;;;;;;3.83;2.00;;;;;;;23.07;42.56;100675.09;4992123;28;20054;-61
2022/06/17 07:55:07;;;;;;;3.03;2.33;;;;;;;23.16;41.77;100662.63;4991854;28;20141;-61
2022/06/17 07:57:40;;;;;;;4.40;2.20;;;;;;;23.25;41.64;100658.19;4992310;28;20064;-62
2022/06/17 08:00:09;;;;;;;3.38;1.75;;;;;;;23.30;41.47;100659.41;4992086;28;20061;-61
2022/06/17 08:02:35;;;;;;;5.00;2.10;;;;;;;23.38;41.48;100665.94;4974672;28;20053;-60
2022/06/17 08:05:03;;;;;;;3.55;2.40;;;;;;;23.46;41.88;100659.81;4991978;28;20054;-61
2022/06/17 08:07:29;;;;;;;4.45;2.67;;;;;;;23.52;40.94;100659.22;4991822;28;20065;-62
2022/06/17 08:09:56;;;;;;;5.38;2.53;;;;;;;23.60;40.86;100655.75;4991622;28;20101;-61
2022/06/17 08:12:23;;;;;;;4.15;2.45;;;;;;;23.66;41.13;100655.19;4992026;28;20434;-60
2022/06/17 08:14:54;;;;;;;5.47;2.28;;;;;;;23.72;40.66;100659.06;4991847;28;20054;-61
2022/06/17 08:17:21;;;;;;;3.55;2.20;;;;;;;23.77;40.29;100652.25;4991977;28;20054;-61
2022/06/17 08:19:50;;;;;;;3.85;2.28;;;;;;;23.82;40.25;100654.50;4974389;28;20109;-62
2022/06/17 08:22:19;;;;;;;5.15;2.67;;;;;;;23.86;40.30;100650.50;4974749;28;20058;-60
2022/06/17 08:24:45;;;;;;;5.38;2.08;;;;;;;23.91;40.21;100647.34;4992136;28;20137;-60
2022/06/17 08:27:14;;;;;;;5.60;2.45;;;;;;;23.97;40.21;100657.50;4991850;28;20190;-62
2022/06/17 08:29:40;;;;;;;4.75;2.38;;;;;;;24.04;40.06;100650.47;4991438;28;20108;-60
2022/06/17 08:35:01;;;;;;;4.40;2.45;;;;;;;24.23;39.51;100646.00;4991434;28;20638;-61
2022/06/17 08:37:28;;;;;;;4.30;2.58;;;;;;;24.28;39.58;100640.13;4991556;28;20046;-60
2022/06/17 08:39:56;;;;;;;4.30;2.35;;;;;;;24.32;39.70;100636.97;4973865;28;20050;-61
2022/06/17 08:42:48;;;;;;;4.00;2.63;;;;;;;24.33;39.33;100641.34;4991222;28;20573;-60
2022/06/17 08:46:00;;;;;;;4.57;2.45;;;;;;;24.35;38.97;100643.88;4991320;28;20062;-61
2022/06/17 08:48:34;;;;;;;7.80;2.13;;;;;;;24.40;39.27;100641.56;4949082;28;20512;-61
2022/06/17 08:51:24;;;;;;;7.28;2.65;;;;;;;24.41;39.58;100637.03;4991324;28;20050;-61
2022/06/17 08:54:09;;;;;;;4.13;2.20;;;;;;;24.44;39.42;100636.72;4973836;28;20491;-61
2022/06/17 08:56:53;;;;;;;5.85;2.30;;;;;;;24.49;38.81;100642.47;4991321;28;20450;-60
2022/06/17 08:59:44;;;;;;;4.88;2.47;;;;;;;24.55;39.68;100641.84;4974085;28;20050;-60
2022/06/17 09:02:33;;;;;;;4.20;2.38;;;;;;;24.65;39.48;100654.34;4991049;28;20058;-61
2022/06/17 09:05:17;;;;;;;4.03;2.30;;;;;;;24.79;39.27;100650.22;4974020;28;20058;-61
2022/06/17 09:08:07;;;;;;;4.38;2.42;;;;;;;24.89;38.69;100647.47;4991189;28;20457;-62
2022/06/17 09:10:43;;;;;;;4.75;2.33;;;;;;;25.01;39.08;100640.81;4991066;28;20058;-60
2022/06/17 09:13:24;;;;;;;1.90;1.80;;;;;;;25.09;38.74;100645.38;4974861;28;20117;-64
2022/06/17 09:15:50;;;;;;;4.28;2.13;;;;;;;25.20;38.91;100642.38;4990962;28;20050;-62
2022/06/17 09:18:41;;;;;;;6.28;2.30;;;;;;;25.28;38.99;100640.72;4990814;28;20085;-62
2022/06/17 09:21:15;;;;;;;4.63;2.10;;;;;;;25.39;39.16;100645.81;4973913;28;20479;-66
2022/06/17 09:23:42;;;;;;;6.93;2.55;;;;;;;25.51;38.40;100649.06;4991102;28;20046;-62
2022/06/17 09:26:28;;;;;;;4.15;2.42;;;;;;;25.57;37.62;100651.13;4991733;28;20057;-61
2022/06/17 09:29:09;;;;;;;3.90;2.28;;;;;;;25.67;37.79;100639.38;4994628;28;20046;-64
2022/06/17 09:31:41;;;;;;;3.22;1.88;;;;;;;25.78;37.93;100636.34;4994935;28;20112;-60
2022/06/17 09:34:22;;;;;;;2.50;1.75;;;;;;;25.83;37.84;100638.53;4994602;28;20065;-60
2022/06/17 09:37:08;;;;;;;4.45;1.80;;;;;;;25.92;38.29;100628.59;4994552;28;20085;-61
2022/06/17 09:39:50;;;;;;;7.70;2.00;;;;;;;26.01;37.90;100631.13;4976796;28;20082;-61
2022/06/17 09:42:23;;;;;;;4.20;2.28;;;;;;;26.14;38.32;100625.25;4994465;28;20050;-63
2022/06/17 09:44:57;;;;;;;3.85;2.33;;;;;;;26.25;37.41;100617.81;4994497;28;20212;-62
2022/06/17 09:47:32;;;;;;;3.90;2.03;;;;;;;26.37;37.59;100613.78;4994545;28;20061;-61
2022/06/17 09:50:11;;;;;;;2.88;1.98;;;;;;;26.49;37.32;100621.50;4994177;28;20467;-61
2022/06/17 09:52:45;;;;;;;4.57;2.20;;;;;;;26.65;37.40;100621.47;4994511;28;20058;-64
2022/06/17 09:55:33;;;;;;;4.22;2.33;;;;;;;26.82;37.84;100629.53;4977240;28;20431;-61
2022/06/17 09:58:08;;;;;;;4.15;2.33;;;;;;;27.03;36.96;100622.75;4994391;28;20096;-63
2022/06/17 10:00:45;;;;;;;3.47;2.03;;;;;;;27.19;36.37;100614.56;4976759;28;20054;-60
2022/06/17 10:03:19;;;;;;;6.43;1.70;;;;;;;27.37;36.02;100609.91;4994425;28;20050;-63
2022/06/17 10:06:17;;;;;;;3.08;1.67;;;;;;;27.50;36.88;100617.44;4976994;28;20495;-61
2022/06/17 10:09:00;;;;;;;3.15;1.67;;;;;;;27.64;35.56;100610.44;4993983;28;20093;-62
2022/06/17 10:11:47;;;;;;;2.85;2.22;;;;;;;27.79;35.96;100607.81;4994118;28;20054;-61
2022/06/17 10:14:51;;;;;;;2.35;1.92;;;;;;;27.93;35.92;100609.75;4994028;28;20050;-61
2022/06/17 10:20:36;;;;;;;3.00;1.70;;;;;;;28.34;35.47;100595.00;4993816;28;20362;-61
2022/06/17 10:23:34;;;;;;;6.82;1.90;;;;;;;28.52;34.69;100595.69;4993807;28;20122;-63
2022/06/17 10:26:19;;;;;;;3.85;1.90;;;;;;;28.71;33.93;100586.97;4993829;28;20442;-61
2022/06/17 10:29:28;;;;;;;5.03;1.88;;;;;;;28.83;33.77;100581.09;4976388;28;20525;-61
2022/06/17 10:31:55;;;;;;;2.33;1.70;;;;;;;28.91;33.60;100575.59;4967220;28;20058;-64
2022/06/17 10:34:52;;;;;;;5.05;1.42;;;;;;;28.86;33.54;100568.00;4993440;28;20049;-61
2022/06/17 10:37:19;;;;;;;2.75;1.75;;;;;;;28.86;32.59;100572.59;4992630;28;20058;-62
2022/06/17 10:40:08;;;;;;;2.88;1.30;;;;;;;28.75;32.42;100566.63;4993454;28;20050;-61
2022/06/17 10:42:35;;;;;;;1.83;1.55;;;;;;;28.66;32.11;100566.94;4993662;28;20450;-62
2022/06/17 10:45:03;;;;;;;2.28;1.33;;;;;;;28.53;32.09;100578.41;4976260;28;20046;-61
2022/06/17 10:47:50;;;;;;;1.30;1.20;;;;;;;28.36;32.08;100581.28;4993658;28;20058;-60
2022/06/17 10:50:26;;;;;;;1.67;1.33;;;;;;;28.30;31.80;100588.25;4993122;28;20046;-61
2022/06/17 10:53:28;;;;;;;3.20;1.58;;;;;;;28.24;32.23;100594.41;4993561;28;20054;-65
2022/06/17 10:56:04;;;;;;;3.65;1.50;;;;;;;28.26;31.94;100600.53;4993442;28;20046;-62
2022/06/17 10:58:33;;;;;;;2.10;1.35;;;;;;;28.33;32.28;100597.91;4993088;28;20057;-61
2022/06/17 11:01:02;;;;;;;1.15;1.05;;;;;;;28.45;33.12;100591.00;4993084;28;20127;-61
2022/06/17 11:03:30;;;;;;;3.00;1.20;;;;;;;28.65;33.13;100587.75;4975956;28;20105;-61
2022/06/17 11:06:16;;;;;;;1.50;1.20;;;;;;;28.92;34.15;100581.88;4993319;28;20065;-61
2022/06/17 11:08:49;;;;;;;2.63;1.65;;;;;;;29.25;32.91;100590.41;4992981;28;20391;-64
2022/06/17 11:14:21;;;;;;;3.40;1.38;;;;;;;30.00;31.66;100589.28;4993099;28;20140;-61
2022/06/17 11:16:48;;;;;;;4.68;1.27;;;;;;;30.25;31.72;100583.44;4975669;28;20054;-62
2022/06/17 11:19:18;;;;;;;2.47;1.30;;;;;;;30.36;30.83;100573.91;4992754;28;20054;-61
2022/06/17 11:21:50;;;;;;;2.92;1.30;;;;;;;30.42;30.93;100578.53;4992499;28;20081;-62
2022/06/17 11:24:27;;;;;;;1.83;1.23;;;;;;;30.43;30.15;100572.06;4992883;28;20046;-61
2022/06/17 11:27:05;;;;;;;2.45;1.30;;;;;;;30.43;30.01;100584.81;4992900;28;20100;-62
2022/06/17 11:29:43;;;;;;;2.58;1.10;;;;;;;30.35;29.75;100577.63;4992552;28;20487;-62
2022/06/17 11:32:19;;;;;;;2.75;1.55;;;;;;;30.25;29.30;100575.31;4974944;28;20446;-62
2022/06/17 11:34:49;;;;;;;1.30;1.10;;;;;;;30.16;29.83;100573.78;4992533;28;20137;-61
2022/06/17 11:37:23;;;;;;;2.30;1.15;;;;;;;30.01;29.73;100571.13;4975191;28;20295;-60
2022/06/17 11:40:07;;;;;;;2.88;1.30;;;;;;;29.88;30.38;100566.41;4975029;28;20450;-61
2022/06/17 11:42:42;;;;;;;1.88;1.15;;;;;;;29.84;30.14;100565.13;4992128;28;20054;-62
2022/06/17 11:45:14;;;;;;;3.00;1.25;;;;;;;29.73;29.17;100553.78;4992515;28;20079;-61
2022/06/17 11:47:46;;;;;;;2.70;1.25;;;;;;;29.62;29.67;100548.88;4975284;28;20054;-61
2022/06/17 11:50:16;;;;;;;;;;;;;;;29.52;30.87;100558.16;4992594;28;20106;-60
2022/06/17 11:52:44;;;;;;;1.50;1.10;;;;;;;29.52;30.35;100555.47;4992172;28;19925;-63
2022/06/17 11:55:12;;;;;;;3.95;1.08;;;;;;;29.46;29.75;100550.78;4974841;28;20046;-61
2022/06/17 11:57:57;;;;;;;2.80;1.20;;;;;;;29.44;30.29;100554.69;4977498;28;20486;-61
2022/06/17 12:00:40;;;;;;;2.45;1.10;;;;;;;29.41;30.59;100553.22;4992157;28;20062;-61
2022/06/17 12:03:07;;;;;;;3.45;1.00;;;;;;;29.49;30.65;100569.38;4991984;28;20054;-61
2022/06/17 12:05:36;;;;;;;3.40;1.20;;;;;;;29.54;31.17;100554.41;4991958;28;20112;-64
2022/06/17 12:08:38;;;;;;;1.25;1.00;;;;;;;29.59;30.70;100543.81;4974368;28;20054;-64
2022/06/17 12:11:12;;;;;;;1.80;0.98;;;;;;;29.69;30.87;100530.78;4983209;28;20443;-62
2022/06/17 12:13:54;;;;;;;1.65;1.10;;;;;;;29.76;30.50;100537.09;4974492;28;20058;-62